sensor_id;sensor_type;location;lat;lon;timestamp;temperature;humidity
23991;DHT22;12205;50.600;4.608;2022-09-09T00:01:49;15.50;99.90
23991;DHT22;12205;50.600;4.608;2022-09-09T00:04:26;15.50;99.90
23991;DHT22;12205;50.600;4.608;2022-09-09T00:07:03;15.60;99.90
23991;DHT22;12205;50.600;4.608;2022-09-09T00:09:40;15.60;99.90
23991;DHT22;12205;50.600;4.608;2022-09-09T00:12:16;15.60;99.90
23991;DHT22;12205;50.600;4.608;2022-09-09T00:14:52;15.70;99.90
23991;DHT22;12205;50.600;4.608;2022-09-09T00:17:32;15.70;99.90
23991;DHT22;12205;50.600;4.608;2022-09-09T00:20:12;15.70;99.90
23991;DHT22;12205;50.600;4.608;2022-09-09T00:22:50;15.70;99.90
23991;DHT22;12205;50.600;4.608;2022-09-09T00:25:31;15.80;99.90
23991;DHT22;12205;50.600;4.608;2022-09-09T00:28:10;15.80;99.90
23991;DHT22;12205;50.600;4.608;2022-09-09T00:30:43;15.80;99.90
23991;DHT22;12205;50.600;4.608;2022-09-09T00:33:15;15.90;99.90
23991;DHT22;12205;50.600;4.608;2022-09-09T00:35:49;15.90;99.90
23991;DHT22;12205;50.600;4.608;2022-09-09T00:38:20;15.90;99.90
23991;DHT22;12205;50.600;4.608;2022-09-09T00:40:56;15.90;99.90
23991;DHT22;12205;50.600;4.608;2022-09-09T00:43:31;15.90;99.90
23991;DHT22;12205;50.600;4.608;2022-09-09T00:46:21;15.90;99.90
23991;DHT22;12205;50.600;4.608;2022-09-09T00:49:13;15.80;99.90
23991;DHT22;12205;50.600;4.608;2022-09-09T00:51:51;15.90;99.90
23991;DHT22;12205;50.600;4.608;2022-09-09T00:54:36;15.90;99.90
23991;DHT22;12205;50.600;4.608;2022-09-09T00:57:25;15.90;99.90
23991;DHT22;12205;50.600;4.608;2022-09-09T01:00:15;15.90;99.90
23991;DHT22;12205;50.600;4.608;2022-09-09T01:02:57;15.90;99.90
23991;DHT22;12205;50.600;4.608;2022-09-09T01:05:35;15.90;99.90
23991;DHT22;12205;50.600;4.608;2022-09-09T01:08:14;16.00;99.90
23991;DHT22;12205;50.600;4.608;2022-09-09T01:10:56;16.00;99.90
23991;DHT22;12205;50.600;4.608;2022-09-09T01:13:32;16.00;99.90
23991;DHT22;12205;50.600;4.608;2022-09-09T01:16:09;16.00;99.90
23991;DHT22;12205;50.600;4.608;2022-09-09T01:18:43;16.00;99.90
23991;DHT22;12205;50.600;4.608;2022-09-09T01:21:19;16.00;99.90
23991;DHT22;12205;50.600;4.608;2022-09-09T01:24:08;16.00;99.90
23991;DHT22;12205;50.600;4.608;2022-09-09T01:27:15;16.00;99.90
23991;DHT22;12205;50.600;4.608;2022-09-09T01:29:44;16.00;99.90
23991;DHT22;12205;50.600;4.608;2022-09-09T01:32:37;16.00;99.90
23991;DHT22;12205;50.600;4.608;2022-09-09T01:35:12;15.90;99.90
23991;DHT22;12205;50.600;4.608;2022-09-09T01:37:57;15.90;99.90
23991;DHT22;12205;50.600;4.608;2022-09-09T01:40:25;15.80;99.90
23991;DHT22;12205;50.600;4.608;2022-09-09T01:42:56;15.90;99.90
23991;DHT22;12205;50.600;4.608;2022-09-09T01:45:24;15.80;99.90
23991;DHT22;12205;50.600;4.608;2022-09-09T01:47:52;15.80;99.90
23991;DHT22;12205;50.600;4.608;2022-09-09T01:50:27;15.90;99.90
23991;DHT22;12205;50.600;4.608;2022-09-09T01:52:57;15.80;99.90
23991;DHT22;12205;50.600;4.608;2022-09-09T01:55:31;15.80;99.90
23991;DHT22;12205;50.600;4.608;2022-09-09T01:58:16;15.80;99.90
23991;DHT22;12205;50.600;4.608;2022-09-09T02:00:59;15.80;99.90
23991;DHT22;12205;50.600;4.608;2022-09-09T02:03:33;15.90;99.90
23991;DHT22;12205;50.600;4.608;2022-09-09T02:06:24;15.90;99.90
23991;DHT22;12205;50.600;4.608;2022-09-09T02:09:05;15.80;99.90
23991;DHT22;12205;50.600;4.608;2022-09-09T02:11:34;15.80;99.90
23991;DHT22;12205;50.600;4.608;2022-09-09T02:14:12;15.80;99.90
23991;DHT22;12205;50.600;4.608;2022-09-09T02:16:49;15.80;99.90
23991;DHT22;12205;50.600;4.608;2022-09-09T02:19:29;15.80;99.90
23991;DHT22;12205;50.600;4.608;2022-09-09T02:22:22;15.70;99.90
23991;DHT22;12205;50.600;4.608;2022-09-09T02:24:53;15.70;99.90
23991;DHT22;12205;50.600;4.608;2022-09-09T02:27:26;15.70;99.90
23991;DHT22;12205;50.600;4.608;2022-09-09T02:29:56;15.70;99.90
23991;DHT22;12205;50.600;4.608;2022-09-09T02:32:39;15.60;99.90
23991;DHT22;12205;50.600;4.608;2022-09-09T02:35:13;15.70;99.90
23991;DHT22;12205;50.600;4.608;2022-09-09T02:37:45;15.70;99.90
23991;DHT22;12205;50.600;4.608;2022-09-09T02:40:14;15.70;99.90
23991;DHT22;12205;50.600;4.608;2022-09-09T02:42:47;15.70;99.90
23991;DHT22;12205;50.600;4.608;2022-09-09T02:45:22;15.60;99.90
23991;DHT22;12205;50.600;4.608;2022-09-09T02:47:58;15.60;99.90
23991;DHT22;12205;50.600;4.608;2022-09-09T02:50:32;15.50;99.90
23991;DHT22;12205;50.600;4.608;2022-09-09T02:53:07;15.50;99.90
23991;DHT22;12205;50.600;4.608;2022-09-09T02:55:46;15.50;99.90
23991;DHT22;12205;50.600;4.608;2022-09-09T02:58:18;15.50;99.90
23991;DHT22;12205;50.600;4.608;2022-09-09T03:00:56;15.50;99.90
23991;DHT22;12205;50.600;4.608;2022-09-09T03:03:25;15.50;99.90
23991;DHT22;12205;50.600;4.608;2022-09-09T03:05:53;15.50;99.90
23991;DHT22;12205;50.600;4.608;2022-09-09T03:08:20;15.50;99.90
23991;DHT22;12205;50.600;4.608;2022-09-09T03:10:47;15.40;99.90
23991;DHT22;12205;50.600;4.608;2022-09-09T03:13:15;15.50;99.90
23991;DHT22;12205;50.600;4.608;2022-09-09T03:15:44;15.40;99.90
23991;DHT22;12205;50.600;4.608;2022-09-09T03:18:16;15.40;99.90
23991;DHT22;12205;50.600;4.608;2022-09-09T03:20:48;15.40;99.90
23991;DHT22;12205;50.600;4.608;2022-09-09T03:23:15;15.40;99.90
23991;DHT22;12205;50.600;4.608;2022-09-09T03:25:47;15.30;99.90
23991;DHT22;12205;50.600;4.608;2022-09-09T03:28:16;15.40;99.90
23991;DHT22;12205;50.600;4.608;2022-09-09T03:30:45;15.40;99.90
23991;DHT22;12205;50.600;4.608;2022-09-09T03:33:13;15.30;99.90
23991;DHT22;12205;50.600;4.608;2022-09-09T03:35:45;15.30;99.90
23991;DHT22;12205;50.600;4.608;2022-09-09T03:38:15;15.40;99.90
23991;DHT22;12205;50.600;4.608;2022-09-09T03:40:49;15.50;99.90
23991;DHT22;12205;50.600;4.608;2022-09-09T03:43:17;15.50;99.90
23991;DHT22;12205;50.600;4.608;2022-09-09T03:45:45;15.50;99.90
23991;DHT22;12205;50.600;4.608;2022-09-09T03:48:14;15.50;99.90
23991;DHT22;12205;50.600;4.608;2022-09-09T03:50:45;15.50;99.90
23991;DHT22;12205;50.600;4.608;2022-09-09T03:53:14;15.40;99.90
23991;DHT22;12205;50.600;4.608;2022-09-09T03:55:44;15.40;99.90
23991;DHT22;12205;50.600;4.608;2022-09-09T03:58:12;15.40;99.90
23991;DHT22;12205;50.600;4.608;2022-09-09T04:00:40;15.40;99.90
23991;DHT22;12205;50.600;4.608;2022-09-09T04:03:11;15.40;99.90
23991;DHT22;12205;50.600;4.608;2022-09-09T04:05:39;15.40;99.90
23991;DHT22;12205;50.600;4.608;2022-09-09T04:08:09;15.40;99.90
23991;DHT22;12205;50.600;4.608;2022-09-09T04:10:37;15.40;99.90
23991;DHT22;12205;50.600;4.608;2022-09-09T04:13:04;15.30;99.90
23991;DHT22;12205;50.600;4.608;2022-09-09T04:15:32;15.30;99.90
23991;DHT22;12205;50.600;4.608;2022-09-09T04:18:01;15.30;99.90
23991;DHT22;12205;50.600;4.608;2022-09-09T04:20:28;15.30;99.90
23991;DHT22;12205;50.600;4.608;2022-09-09T04:22:56;15.30;99.90
23991;DHT22;12205;50.600;4.608;2022-09-09T04:25:25;15.30;99.90
23991;DHT22;12205;50.600;4.608;2022-09-09T04:27:53;15.30;99.90
23991;DHT22;12205;50.600;4.608;2022-09-09T04:30:21;15.30;99.90
23991;DHT22;12205;50.600;4.608;2022-09-09T04:32:48;15.30;99.90
23991;DHT22;12205;50.600;4.608;2022-09-09T04:35:15;15.30;99.90
23991;DHT22;12205;50.600;4.608;2022-09-09T04:37:46;15.30;99.90
23991;DHT22;12205;50.600;4.608;2022-09-09T04:40:14;15.40;99.90
23991;DHT22;12205;50.600;4.608;2022-09-09T04:42:43;15.40;99.90
23991;DHT22;12205;50.600;4.608;2022-09-09T04:45:12;15.50;99.90
23991;DHT22;12205;50.600;4.608;2022-09-09T04:47:40;15.50;99.90
23991;DHT22;12205;50.600;4.608;2022-09-09T04:50:08;15.50;99.90
23991;DHT22;12205;50.600;4.608;2022-09-09T04:52:36;15.50;99.90
23991;DHT22;12205;50.600;4.608;2022-09-09T04:55:04;15.50;99.90
23991;DHT22;12205;50.600;4.608;2022-09-09T04:57:32;15.50;99.90
23991;DHT22;12205;50.600;4.608;2022-09-09T05:00:01;15.50;99.90
23991;DHT22;12205;50.600;4.608;2022-09-09T05:02:37;15.50;99.90
23991;DHT22;12205;50.600;4.608;2022-09-09T05:05:05;15.60;99.90
23991;DHT22;12205;50.600;4.608;2022-09-09T05:07:33;15.50;99.90
23991;DHT22;12205;50.600;4.608;2022-09-09T05:10:00;15.60;99.90
23991;DHT22;12205;50.600;4.608;2022-09-09T05:12:31;15.60;99.90
23991;DHT22;12205;50.600;4.608;2022-09-09T05:14:59;15.60;99.90
23991;DHT22;12205;50.600;4.608;2022-09-09T05:17:27;15.70;99.90
23991;DHT22;12205;50.600;4.608;2022-09-09T05:19:54;15.70;99.90
23991;DHT22;12205;50.600;4.608;2022-09-09T05:22:22;15.60;99.90
23991;DHT22;12205;50.600;4.608;2022-09-09T05:24:51;15.70;99.90
23991;DHT22;12205;50.600;4.608;2022-09-09T05:27:18;15.60;99.90
23991;DHT22;12205;50.600;4.608;2022-09-09T05:29:47;15.50;99.90
23991;DHT22;12205;50.600;4.608;2022-09-09T05:32:16;15.50;99.90
23991;DHT22;12205;50.600;4.608;2022-09-09T05:34:46;15.50;99.90
23991;DHT22;12205;50.600;4.608;2022-09-09T05:37:14;15.60;99.90
23991;DHT22;12205;50.600;4.608;2022-09-09T05:39:42;15.60;99.90
23991;DHT22;12205;50.600;4.608;2022-09-09T05:42:09;15.70;99.90
23991;DHT22;12205;50.600;4.608;2022-09-09T05:44:37;15.80;99.90
23991;DHT22;12205;50.600;4.608;2022-09-09T05:47:05;15.80;99.90
23991;DHT22;12205;50.600;4.608;2022-09-09T05:49:35;15.80;99.90
23991;DHT22;12205;50.600;4.608;2022-09-09T05:52:02;15.80;99.90
23991;DHT22;12205;50.600;4.608;2022-09-09T05:54:30;15.80;99.90
23991;DHT22;12205;50.600;4.608;2022-09-09T05:56:58;15.80;99.90
23991;DHT22;12205;50.600;4.608;2022-09-09T05:59:25;15.90;99.90
23991;DHT22;12205;50.600;4.608;2022-09-09T06:01:55;15.80;99.90
23991;DHT22;12205;50.600;4.608;2022-09-09T06:04:31;15.90;99.90
23991;DHT22;12205;50.600;4.608;2022-09-09T06:07:02;15.80;99.90
23991;DHT22;12205;50.600;4.608;2022-09-09T06:09:29;15.80;99.90
23991;DHT22;12205;50.600;4.608;2022-09-09T06:11:56;15.80;99.90
23991;DHT22;12205;50.600;4.608;2022-09-09T06:14:25;15.90;99.90
23991;DHT22;12205;50.600;4.608;2022-09-09T06:16:53;15.90;99.90
23991;DHT22;12205;50.600;4.608;2022-09-09T06:19:25;16.00;99.90
23991;DHT22;12205;50.600;4.608;2022-09-09T06:21:55;15.90;99.90
23991;DHT22;12205;50.600;4.608;2022-09-09T06:24:24;15.90;99.90
23991;DHT22;12205;50.600;4.608;2022-09-09T06:26:51;15.90;99.90
23991;DHT22;12205;50.600;4.608;2022-09-09T06:29:22;16.00;99.90
23991;DHT22;12205;50.600;4.608;2022-09-09T06:31:51;16.10;99.90
23991;DHT22;12205;50.600;4.608;2022-09-09T06:34:21;16.00;99.90
23991;DHT22;12205;50.600;4.608;2022-09-09T06:36:58;16.10;99.90
23991;DHT22;12205;50.600;4.608;2022-09-09T06:39:36;16.10;99.90
23991;DHT22;12205;50.600;4.608;2022-09-09T06:42:04;16.30;99.90
23991;DHT22;12205;50.600;4.608;2022-09-09T06:44:52;16.30;99.90
23991;DHT22;12205;50.600;4.608;2022-09-09T06:47:31;16.40;99.90
23991;DHT22;12205;50.600;4.608;2022-09-09T06:49:59;16.30;99.90
23991;DHT22;12205;50.600;4.608;2022-09-09T06:52:27;16.20;99.90
23991;DHT22;12205;50.600;4.608;2022-09-09T06:54:56;16.20;99.90
23991;DHT22;12205;50.600;4.608;2022-09-09T06:57:25;16.20;99.90
23991;DHT22;12205;50.600;4.608;2022-09-09T06:59:52;16.20;99.90
23991;DHT22;12205;50.600;4.608;2022-09-09T07:02:19;16.20;99.90
23991;DHT22;12205;50.600;4.608;2022-09-09T07:04:47;16.20;99.90
23991;DHT22;12205;50.600;4.608;2022-09-09T07:07:17;16.40;99.90
23991;DHT22;12205;50.600;4.608;2022-09-09T07:09:44;16.50;99.90
23991;DHT22;12205;50.600;4.608;2022-09-09T07:12:13;16.50;99.90
23991;DHT22;12205;50.600;4.608;2022-09-09T07:14:48;16.40;99.90
23991;DHT22;12205;50.600;4.608;2022-09-09T07:17:15;16.40;99.90
23991;DHT22;12205;50.600;4.608;2022-09-09T07:19:42;16.20;99.90
23991;DHT22;12205;50.600;4.608;2022-09-09T07:22:09;16.30;99.90
23991;DHT22;12205;50.600;4.608;2022-09-09T07:24:37;16.30;99.90
23991;DHT22;12205;50.600;4.608;2022-09-09T07:27:06;16.40;99.90
23991;DHT22;12205;50.600;4.608;2022-09-09T07:29:36;16.40;99.90
23991;DHT22;12205;50.600;4.608;2022-09-09T07:32:04;16.60;99.90
23991;DHT22;12205;50.600;4.608;2022-09-09T07:34:35;16.60;99.90
23991;DHT22;12205;50.600;4.608;2022-09-09T07:37:03;16.60;99.90
23991;DHT22;12205;50.600;4.608;2022-09-09T07:39:31;16.60;99.90
23991;DHT22;12205;50.600;4.608;2022-09-09T07:41:58;16.50;99.90
23991;DHT22;12205;50.600;4.608;2022-09-09T07:44:26;16.50;99.90
23991;DHT22;12205;50.600;4.608;2022-09-09T07:47:01;16.50;99.90
23991;DHT22;12205;50.600;4.608;2022-09-09T07:49:35;16.40;99.90
23991;DHT22;12205;50.600;4.608;2022-09-09T07:52:04;16.50;99.90
23991;DHT22;12205;50.600;4.608;2022-09-09T07:54:32;16.50;99.90
23991;DHT22;12205;50.600;4.608;2022-09-09T07:57:01;16.40;99.90
23991;DHT22;12205;50.600;4.608;2022-09-09T07:59:30;16.30;99.90
23991;DHT22;12205;50.600;4.608;2022-09-09T08:01:58;16.10;99.90
23991;DHT22;12205;50.600;4.608;2022-09-09T08:04:29;16.00;99.90
23991;DHT22;12205;50.600;4.608;2022-09-09T08:06:59;16.10;99.90
23991;DHT22;12205;50.600;4.608;2022-09-09T08:09:32;16.20;99.90
23991;DHT22;12205;50.600;4.608;2022-09-09T08:12:22;16.10;99.90
23991;DHT22;12205;50.600;4.608;2022-09-09T08:14:49;16.10;99.90
23991;DHT22;12205;50.600;4.608;2022-09-09T08:17:17;16.30;99.90
23991;DHT22;12205;50.600;4.608;2022-09-09T08:19:46;16.40;99.90
23991;DHT22;12205;50.600;4.608;2022-09-09T08:22:18;16.40;99.90
23991;DHT22;12205;50.600;4.608;2022-09-09T08:24:45;16.50;99.90
23991;DHT22;12205;50.600;4.608;2022-09-09T08:27:13;16.50;99.90
23991;DHT22;12205;50.600;4.608;2022-09-09T08:29:40;16.50;99.90
23991;DHT22;12205;50.600;4.608;2022-09-09T08:32:07;16.60;99.90
23991;DHT22;12205;50.600;4.608;2022-09-09T08:34:36;16.70;99.90
23991;DHT22;12205;50.600;4.608;2022-09-09T08:37:09;16.70;99.90
23991;DHT22;12205;50.600;4.608;2022-09-09T08:39:39;16.80;99.90
23991;DHT22;12205;50.600;4.608;2022-09-09T08:42:33;16.80;99.90
23991;DHT22;12205;50.600;4.608;2022-09-09T08:45:18;17.00;99.90
23991;DHT22;12205;50.600;4.608;2022-09-09T08:48:12;17.00;99.90
23991;DHT22;12205;50.600;4.608;2022-09-09T08:50:49;17.20;99.90
23991;DHT22;12205;50.600;4.608;2022-09-09T08:53:26;17.10;99.90
23991;DHT22;12205;50.600;4.608;2022-09-09T08:55:58;17.10;99.90
23991;DHT22;12205;50.600;4.608;2022-09-09T08:58:44;17.20;99.90
23991;DHT22;12205;50.600;4.608;2022-09-09T09:01:33;17.40;99.90
23991;DHT22;12205;50.600;4.608;2022-09-09T09:04:21;17.30;99.90
23991;DHT22;12205;50.600;4.608;2022-09-09T09:07:09;17.20;99.90
23991;DHT22;12205;50.600;4.608;2022-09-09T09:09:54;17.10;99.90
23991;DHT22;12205;50.600;4.608;2022-09-09T09:12:36;17.00;99.90
23991;DHT22;12205;50.600;4.608;2022-09-09T09:15:14;17.00;99.90
23991;DHT22;12205;50.600;4.608;2022-09-09T09:17:45;16.80;99.90
23991;DHT22;12205;50.600;4.608;2022-09-09T09:20:16;16.70;99.90
23991;DHT22;12205;50.600;4.608;2022-09-09T09:22:49;16.50;99.90
23991;DHT22;12205;50.600;4.608;2022-09-09T09:25:22;16.40;99.90
23991;DHT22;12205;50.600;4.608;2022-09-09T09:27:58;16.20;99.90
23991;DHT22;12205;50.600;4.608;2022-09-09T09:30:34;16.10;99.90
23991;DHT22;12205;50.600;4.608;2022-09-09T09:33:14;16.10;99.90
23991;DHT22;12205;50.600;4.608;2022-09-09T09:35:47;16.10;99.90
23991;DHT22;12205;50.600;4.608;2022-09-09T09:38:17;16.10;99.90
23991;DHT22;12205;50.600;4.608;2022-09-09T09:40:50;16.20;99.90
23991;DHT22;12205;50.600;4.608;2022-09-09T09:43:23;16.20;99.90
23991;DHT22;12205;50.600;4.608;2022-09-09T09:45:53;16.20;99.90
23991;DHT22;12205;50.600;4.608;2022-09-09T09:48:21;16.10;99.90
23991;DHT22;12205;50.600;4.608;2022-09-09T09:50:51;16.00;99.90
23991;DHT22;12205;50.600;4.608;2022-09-09T09:53:23;16.10;99.90
23991;DHT22;12205;50.600;4.608;2022-09-09T09:55:58;16.10;99.90
23991;DHT22;12205;50.600;4.608;2022-09-09T09:58:29;16.00;99.90
23991;DHT22;12205;50.600;4.608;2022-09-09T10:01:01;16.10;99.90
23991;DHT22;12205;50.600;4.608;2022-09-09T10:03:30;16.10;99.90
23991;DHT22;12205;50.600;4.608;2022-09-09T10:06:03;16.10;99.90
23991;DHT22;12205;50.600;4.608;2022-09-09T10:08:33;16.10;99.90
23991;DHT22;12205;50.600;4.608;2022-09-09T10:11:33;16.20;99.90
23991;DHT22;12205;50.600;4.608;2022-09-09T10:14:17;16.30;99.90
23991;DHT22;12205;50.600;4.608;2022-09-09T10:17:01;16.40;99.90
23991;DHT22;12205;50.600;4.608;2022-09-09T10:19:37;16.40;99.90
23991;DHT22;12205;50.600;4.608;2022-09-09T10:22:21;16.40;99.90
23991;DHT22;12205;50.600;4.608;2022-09-09T10:25:18;16.40;99.90
23991;DHT22;12205;50.600;4.608;2022-09-09T10:28:16;16.40;99.90
23991;DHT22;12205;50.600;4.608;2022-09-09T10:31:07;16.50;99.90
23991;DHT22;12205;50.600;4.608;2022-09-09T10:33:50;16.60;99.90
23991;DHT22;12205;50.600;4.608;2022-09-09T10:36:24;16.60;99.90
23991;DHT22;12205;50.600;4.608;2022-09-09T10:38:58;16.70;99.90
23991;DHT22;12205;50.600;4.608;2022-09-09T10:41:43;16.70;99.90
23991;DHT22;12205;50.600;4.608;2022-09-09T10:44:34;16.80;99.90
23991;DHT22;12205;50.600;4.608;2022-09-09T10:47:43;17.00;99.90
23991;DHT22;12205;50.600;4.608;2022-09-09T10:50:40;17.20;99.90
23991;DHT22;12205;50.600;4.608;2022-09-09T10:53:25;17.20;99.90
23991;DHT22;12205;50.600;4.608;2022-09-09T10:56:04;17.30;99.90
23991;DHT22;12205;50.600;4.608;2022-09-09T10:58:38;17.30;99.90
23991;DHT22;12205;50.600;4.608;2022-09-09T11:01:15;17.20;99.90
23991;DHT22;12205;50.600;4.608;2022-09-09T11:03:53;17.20;99.90
23991;DHT22;12205;50.600;4.608;2022-09-09T11:06:29;17.00;99.90
23991;DHT22;12205;50.600;4.608;2022-09-09T11:09:02;16.80;99.90
23991;DHT22;12205;50.600;4.608;2022-09-09T11:11:34;16.70;99.90
23991;DHT22;12205;50.600;4.608;2022-09-09T11:14:12;16.70;99.90
23991;DHT22;12205;50.600;4.608;2022-09-09T11:16:48;16.80;99.90
23991;DHT22;12205;50.600;4.608;2022-09-09T11:19:21;16.90;99.90
23991;DHT22;12205;50.600;4.608;2022-09-09T11:21:55;16.80;99.90
23991;DHT22;12205;50.600;4.608;2022-09-09T11:24:28;17.00;99.90
23991;DHT22;12205;50.600;4.608;2022-09-09T11:27:05;17.10;99.90
23991;DHT22;12205;50.600;4.608;2022-09-09T11:30:05;17.20;99.90
23991;DHT22;12205;50.600;4.608;2022-09-09T11:33:30;17.30;99.90
23991;DHT22;12205;50.600;4.608;2022-09-09T11:36:40;17.30;99.90
23991;DHT22;12205;50.600;4.608;2022-09-09T11:39:38;17.30;99.90
23991;DHT22;12205;50.600;4.608;2022-09-09T11:42:17;17.20;99.90
23991;DHT22;12205;50.600;4.608;2022-09-09T11:44:46;17.20;99.90
23991;DHT22;12205;50.600;4.608;2022-09-09T11:47:20;17.20;99.90
23991;DHT22;12205;50.600;4.608;2022-09-09T11:49:53;17.00;99.90
23991;DHT22;12205;50.600;4.608;2022-09-09T11:52:25;17.00;99.90
23991;DHT22;12205;50.600;4.608;2022-09-09T11:55:09;16.90;99.90
23991;DHT22;12205;50.600;4.608;2022-09-09T11:57:38;17.00;99.90
23991;DHT22;12205;50.600;4.608;2022-09-09T12:00:07;16.90;99.90
23991;DHT22;12205;50.600;4.608;2022-09-09T12:02:58;16.90;99.90
23991;DHT22;12205;50.600;4.608;2022-09-09T12:05:37;17.00;99.90
23991;DHT22;12205;50.600;4.608;2022-09-09T12:08:09;17.00;99.90
23991;DHT22;12205;50.600;4.608;2022-09-09T12:10:53;17.10;99.90
23991;DHT22;12205;50.600;4.608;2022-09-09T12:13:23;17.20;99.90
23991;DHT22;12205;50.600;4.608;2022-09-09T12:15:53;17.40;99.90
23991;DHT22;12205;50.600;4.608;2022-09-09T12:18:23;17.50;99.90
23991;DHT22;12205;50.600;4.608;2022-09-09T12:20:59;17.50;99.90
23991;DHT22;12205;50.600;4.608;2022-09-09T12:23:41;17.50;99.90
23991;DHT22;12205;50.600;4.608;2022-09-09T12:26:30;17.60;99.90
23991;DHT22;12205;50.600;4.608;2022-09-09T12:29:14;17.70;99.90
23991;DHT22;12205;50.600;4.608;2022-09-09T12:31:55;17.70;99.90
23991;DHT22;12205;50.600;4.608;2022-09-09T12:34:35;17.80;99.90
23991;DHT22;12205;50.600;4.608;2022-09-09T12:37:27;17.80;99.90
23991;DHT22;12205;50.600;4.608;2022-09-09T12:40:00;17.80;99.90
23991;DHT22;12205;50.600;4.608;2022-09-09T12:42:30;17.80;99.90
23991;DHT22;12205;50.600;4.608;2022-09-09T12:45:00;17.90;99.90
23991;DHT22;12205;50.600;4.608;2022-09-09T12:47:38;17.90;99.90
23991;DHT22;12205;50.600;4.608;2022-09-09T12:50:17;18.00;99.90
23991;DHT22;12205;50.600;4.608;2022-09-09T12:52:50;18.00;99.90
23991;DHT22;12205;50.600;4.608;2022-09-09T12:55:23;18.00;99.90
23991;DHT22;12205;50.600;4.608;2022-09-09T12:57:52;18.00;99.90
23991;DHT22;12205;50.600;4.608;2022-09-09T13:00:22;18.00;99.90
23991;DHT22;12205;50.600;4.608;2022-09-09T13:02:52;18.10;99.90
23991;DHT22;12205;50.600;4.608;2022-09-09T13:05:23;18.10;99.90
23991;DHT22;12205;50.600;4.608;2022-09-09T13:08:00;18.20;99.90
23991;DHT22;12205;50.600;4.608;2022-09-09T13:10:31;18.20;99.90
23991;DHT22;12205;50.600;4.608;2022-09-09T13:13:02;18.20;99.90
23991;DHT22;12205;50.600;4.608;2022-09-09T13:15:31;18.20;99.90
23991;DHT22;12205;50.600;4.608;2022-09-09T13:18:01;18.30;99.90
23991;DHT22;12205;50.600;4.608;2022-09-09T13:20:33;18.30;99.90
23991;DHT22;12205;50.600;4.608;2022-09-09T13:23:02;18.40;99.90
23991;DHT22;12205;50.600;4.608;2022-09-09T13:25:30;18.40;99.90
23991;DHT22;12205;50.600;4.608;2022-09-09T13:27:59;18.50;99.90
23991;DHT22;12205;50.600;4.608;2022-09-09T13:30:29;18.80;99.90
23991;DHT22;12205;50.600;4.608;2022-09-09T13:33:20;19.10;99.90
23991;DHT22;12205;50.600;4.608;2022-09-09T13:35:51;19.10;99.90
23991;DHT22;12205;50.600;4.608;2022-09-09T13:38:23;19.20;99.90
23991;DHT22;12205;50.600;4.608;2022-09-09T13:40:55;19.10;99.90
23991;DHT22;12205;50.600;4.608;2022-09-09T13:43:25;19.10;99.90
23991;DHT22;12205;50.600;4.608;2022-09-09T13:45:55;19.30;99.90
23991;DHT22;12205;50.600;4.608;2022-09-09T13:48:24;19.50;99.90
23991;DHT22;12205;50.600;4.608;2022-09-09T13:50:57;19.30;99.90
23991;DHT22;12205;50.600;4.608;2022-09-09T13:53:27;19.30;99.90
23991;DHT22;12205;50.600;4.608;2022-09-09T13:55:56;19.20;99.90
23991;DHT22;12205;50.600;4.608;2022-09-09T13:58:25;19.30;99.90
23991;DHT22;12205;50.600;4.608;2022-09-09T14:00:53;19.50;99.90
23991;DHT22;12205;50.600;4.608;2022-09-09T14:03:20;19.90;99.90
23991;DHT22;12205;50.600;4.608;2022-09-09T14:05:48;20.20;99.90
23991;DHT22;12205;50.600;4.608;2022-09-09T14:08:22;20.10;99.90
23991;DHT22;12205;50.600;4.608;2022-09-09T14:10:53;19.90;99.90
23991;DHT22;12205;50.600;4.608;2022-09-09T14:13:22;19.70;99.90
23991;DHT22;12205;50.600;4.608;2022-09-09T14:15:50;19.60;99.90
23991;DHT22;12205;50.600;4.608;2022-09-09T14:18:18;19.50;99.90
23991;DHT22;12205;50.600;4.608;2022-09-09T14:20:45;19.50;99.90
23991;DHT22;12205;50.600;4.608;2022-09-09T14:23:12;19.50;99.90
23991;DHT22;12205;50.600;4.608;2022-09-09T14:25:41;19.40;99.90
23991;DHT22;12205;50.600;4.608;2022-09-09T14:28:13;19.50;99.90
23991;DHT22;12205;50.600;4.608;2022-09-09T14:30:41;20.70;99.90
23991;DHT22;12205;50.600;4.608;2022-09-09T14:33:12;21.70;99.90
23991;DHT22;12205;50.600;4.608;2022-09-09T14:35:41;22.00;99.90
23991;DHT22;12205;50.600;4.608;2022-09-09T14:38:10;22.60;99.90
23991;DHT22;12205;50.600;4.608;2022-09-09T14:40:37;23.20;99.90
23991;DHT22;12205;50.600;4.608;2022-09-09T14:43:05;22.60;99.90
23991;DHT22;12205;50.600;4.608;2022-09-09T14:45:35;21.70;99.90
23991;DHT22;12205;50.600;4.608;2022-09-09T14:48:03;21.20;99.90
23991;DHT22;12205;50.600;4.608;2022-09-09T14:50:31;20.80;99.90
23991;DHT22;12205;50.600;4.608;2022-09-09T14:52:58;20.30;99.90
23991;DHT22;12205;50.600;4.608;2022-09-09T14:55:25;20.10;99.90
23991;DHT22;12205;50.600;4.608;2022-09-09T14:57:54;19.60;99.90
23991;DHT22;12205;50.600;4.608;2022-09-09T15:00:21;19.30;99.90
23991;DHT22;12205;50.600;4.608;2022-09-09T15:02:51;19.10;99.90
23991;DHT22;12205;50.600;4.608;2022-09-09T15:05:19;19.00;99.90
23991;DHT22;12205;50.600;4.608;2022-09-09T15:07:46;18.80;99.90
23991;DHT22;12205;50.600;4.608;2022-09-09T15:10:14;18.50;99.90
23991;DHT22;12205;50.600;4.608;2022-09-09T15:12:42;18.40;99.90
23991;DHT22;12205;50.600;4.608;2022-09-09T15:15:10;18.30;99.90
23991;DHT22;12205;50.600;4.608;2022-09-09T15:17:38;18.30;99.90
23991;DHT22;12205;50.600;4.608;2022-09-09T15:20:08;18.20;99.90
23991;DHT22;12205;50.600;4.608;2022-09-09T15:22:35;18.20;99.90
23991;DHT22;12205;50.600;4.608;2022-09-09T15:25:04;18.10;99.90
23991;DHT22;12205;50.600;4.608;2022-09-09T15:27:33;18.00;99.90
23991;DHT22;12205;50.600;4.608;2022-09-09T15:30:00;17.80;99.90
23991;DHT22;12205;50.600;4.608;2022-09-09T15:32:28;17.40;99.90
23991;DHT22;12205;50.600;4.608;2022-09-09T15:34:55;17.40;99.90
23991;DHT22;12205;50.600;4.608;2022-09-09T15:37:24;17.70;99.90
23991;DHT22;12205;50.600;4.608;2022-09-09T15:39:51;18.20;99.90
23991;DHT22;12205;50.600;4.608;2022-09-09T15:42:18;18.30;99.90
23991;DHT22;12205;50.600;4.608;2022-09-09T15:44:45;18.20;99.90
23991;DHT22;12205;50.600;4.608;2022-09-09T15:47:12;18.10;99.90
23991;DHT22;12205;50.600;4.608;2022-09-09T15:49:40;18.00;99.90
23991;DHT22;12205;50.600;4.608;2022-09-09T15:52:09;17.90;99.90
23991;DHT22;12205;50.600;4.608;2022-09-09T15:54:38;17.80;99.90
23991;DHT22;12205;50.600;4.608;2022-09-09T15:57:07;17.70;99.90
23991;DHT22;12205;50.600;4.608;2022-09-09T15:59:37;17.70;99.90
23991;DHT22;12205;50.600;4.608;2022-09-09T16:02:06;17.70;99.90
23991;DHT22;12205;50.600;4.608;2022-09-09T16:04:33;17.70;99.90
23991;DHT22;12205;50.600;4.608;2022-09-09T16:07:02;18.10;99.90
23991;DHT22;12205;50.600;4.608;2022-09-09T16:09:31;18.60;99.90